createdAt,value
2022-10-30T00:01:14.717Z,14.3076
2022-10-30T00:11:16.085Z,14.22683
2022-10-30T00:21:17.249Z,14.19072
2022-10-30T00:31:18.387Z,13.97849
2022-10-30T00:41:19.513Z,13.92654
2022-10-30T00:51:20.852Z,13.79794
2022-10-30T01:01:22.260Z,13.65635
2022-10-30T01:11:23.482Z,13.50526
2022-10-30T01:21:24.641Z,13.28164
2022-10-30T01:31:25.758Z,13.33042
2022-10-30T01:41:26.892Z,13.29589
2022-10-30T01:51:28.053Z,13.23159
2022-10-30T02:01:29.309Z,13.11946
2022-10-30T02:11:30.925Z,12.95697
2022-10-30T02:21:32.079Z,12.77357
2022-10-30T02:31:33.196Z,12.64814
2022-10-30T02:41:34.364Z,12.66809
2022-10-30T02:51:35.497Z,12.59714
2022-10-30T03:01:36.728Z,12.57117
2022-10-30T03:11:37.968Z,12.55343
2022-10-30T03:21:39.148Z,12.29813
2022-10-30T03:31:40.550Z,12.35514
2022-10-30T03:41:42.042Z,12.34628
2022-10-30T03:51:43.162Z,12.36655
2022-10-30T04:01:44.585Z,12.31492
2022-10-30T04:11:45.921Z,12.36338
2022-10-30T04:21:47.027Z,12.27754
2022-10-30T04:31:48.169Z,12.31175
2022-10-30T04:41:49.293Z,12.31872
2022-10-30T04:51:50.659Z,12.3013
2022-10-30T05:01:51.877Z,12.29623
2022-10-30T05:11:58.903Z,12.1765
2022-10-30T05:22:01.411Z,12.16858
2022-10-30T05:32:03.185Z,12.10048
2022-10-30T05:42:07.536Z,12.01369
2022-10-30T05:52:11.892Z,11.93926
2022-10-30T06:02:13.326Z,11.9003
2022-10-30T06:12:14.659Z,11.87939
2022-10-30T06:22:15.768Z,11.83061
2022-10-30T06:32:16.904Z,11.80717
2022-10-30T06:42:18.024Z,11.86735
2022-10-30T06:52:19.160Z,11.94211
2022-10-30T07:02:20.746Z,12.00767
2022-10-30T07:12:22.014Z,12.07197
2022-10-30T07:22:23.141Z,12.12329
2022-10-30T07:32:24.273Z,12.2256
2022-10-30T07:42:25.409Z,12.18093
2022-10-30T07:52:26.557Z,12.20912
2022-10-30T08:02:27.843Z,12.32094
2022-10-30T08:12:29.089Z,12.65574
2022-10-30T08:22:30.381Z,12.77167
2022-10-30T08:32:31.580Z,12.85561
2022-10-30T08:42:32.716Z,12.8838
2022-10-30T08:52:33.859Z,13.00036
2022-10-30T09:02:35.123Z,13.09982
2022-10-30T09:12:36.375Z,13.29304
2022-10-30T09:22:37.791Z,13.38331
2022-10-30T09:32:38.958Z,13.57115
2022-10-30T09:42:40.111Z,13.55246
2022-10-30T09:52:41.500Z,13.43178
2022-10-30T10:02:42.835Z,13.41942
2022-10-30T10:12:44.043Z,13.24616
2022-10-30T10:22:45.217Z,13.33168
2022-10-30T10:32:46.364Z,13.42703
2022-10-30T10:42:47.523Z,13.52522
2022-10-30T10:52:48.680Z,13.64115
2022-10-30T11:02:49.981Z,13.87871
2022-10-30T11:12:51.467Z,13.99718
2022-10-30T11:22:52.652Z,13.94206
2022-10-30T11:32:55.493Z,14.0637
2022-10-30T11:42:58.876Z,14.24552
2022-10-30T11:53:00.484Z,14.3038
2022-10-30T12:03:02.183Z,14.43652
2022-10-30T12:13:04.406Z,14.52521
2022-10-30T12:23:06.123Z,14.48783
2022-10-30T12:33:07.796Z,14.46123
2022-10-30T12:43:09.470Z,14.53503
2022-10-30T12:53:11.117Z,14.75422
2022-10-30T13:03:12.333Z,14.75739
2022-10-30T13:13:13.734Z,14.71558
2022-10-30T13:23:15.208Z,14.72572
2022-10-30T13:33:16.359Z,14.70386
2022-10-30T13:43:17.512Z,14.70323
2022-10-30T13:53:18.812Z,14.7102
2022-10-30T14:03:19.944Z,14.68771
2022-10-30T14:13:21.281Z,14.67852
2022-10-30T14:23:22.465Z,14.67725
2022-10-30T14:33:23.873Z,14.9031
2022-10-30T14:43:25.024Z,14.91197
2022-10-30T14:53:26.121Z,14.65983
2022-10-30T15:03:27.255Z,14.50842
2022-10-30T15:13:28.380Z,14.23063
2022-10-30T15:23:29.517Z,13.8198
2022-10-30T15:33:30.895Z,13.82233
2022-10-30T15:43:32.045Z,13.80048
2022-10-30T15:53:33.171Z,13.26897
2022-10-30T16:03:34.317Z,12.57687
2022-10-30T16:13:35.473Z,12.30161
2022-10-30T16:23:37.123Z,12.08433
2022-10-30T16:33:38.368Z,11.9665
2022-10-30T16:43:39.585Z,11.8984
2022-10-30T16:53:40.928Z,11.89238
2022-10-30T17:03:42.120Z,11.81921
2022-10-30T17:13:43.241Z,11.89143
2022-10-30T17:23:44.447Z,11.89459
2022-10-30T17:33:45.593Z,11.88541
2022-10-30T17:43:46.728Z,11.75491
2022-10-30T17:53:47.921Z,11.76916
2022-10-30T18:03:49.068Z,11.785
2022-10-30T18:13:50.269Z,11.7055
2022-10-30T18:23:53.072Z,11.55884
2022-10-30T18:33:54.944Z,11.54586
2022-10-30T18:43:56.067Z,11.65165
2022-10-30T18:53:57.378Z,11.62568
2022-10-30T19:03:58.536Z,11.55029
2022-10-30T19:13:59.762Z,11.55884
2022-10-30T19:24:01.118Z,11.51038
2022-10-30T19:34:02.672Z,11.53477
2022-10-30T19:44:04.419Z,11.60034
2022-10-30T19:54:06.376Z,11.5864
2022-10-30T20:04:08.120Z,11.71373
2022-10-30T20:14:09.578Z,11.80432
2022-10-30T20:24:11.303Z,11.91107
2022-10-30T20:34:12.528Z,11.89935
2022-10-30T20:44:13.626Z,11.8455
2022-10-30T20:54:14.973Z,11.9117
2022-10-30T21:04:16.282Z,11.92374
2022-10-30T21:14:17.446Z,11.94179
2022-10-30T21:24:18.613Z,12.01021
2022-10-30T21:34:19.748Z,11.95699
2022-10-30T21:44:21.074Z,11.94971
2022-10-30T21:54:22.335Z,11.92025
2022-10-30T22:04:23.589Z,11.8607
2022-10-30T22:14:24.755Z,11.90695
2022-10-30T22:24:25.901Z,11.79672
2022-10-30T22:34:27.042Z,11.70518
2022-10-30T22:44:28.206Z,11.68174
2022-10-30T22:54:29.357Z,11.54459
2022-10-30T23:04:30.752Z,11.51735
2022-10-30T23:14:32.108Z,11.44355
2022-10-30T23:24:33.275Z,11.40997
2022-10-30T23:34:34.461Z,11.38432
2022-10-30T23:44:35.655Z,11.36595
2022-10-30T23:54:36.779Z,11.28835
